createdAt,value
2023-02-08T00:00:24.045Z,100697.88
2023-02-08T00:03:27.699Z,100691.66
2023-02-08T00:06:31.049Z,100693.81
2023-02-08T00:09:32.812Z,100703.13
2023-02-08T00:12:34.403Z,100692.91
2023-02-08T00:15:40.395Z,100692.81
2023-02-08T00:18:42.014Z,100684.81
2023-02-08T00:21:44.918Z,100677.03
2023-02-08T00:24:46.546Z,100681.69
2023-02-08T00:27:48.305Z,100677.38
2023-02-08T00:30:49.870Z,100667.97
2023-02-08T00:33:51.613Z,100673.88
2023-02-08T00:36:54.752Z,100671.16
2023-02-08T00:39:56.428Z,100651.78
2023-02-08T00:42:58.964Z,100656.25
2023-02-08T00:46:00.842Z,100654.63
2023-02-08T00:49:02.611Z,100654.78
2023-02-08T00:52:05.760Z,100653.56
2023-02-08T00:55:08.769Z,100655.38
2023-02-08T00:58:11.614Z,100657.22
2023-02-08T01:01:13.781Z,100661.66
2023-02-08T01:04:15.498Z,100655.59
2023-02-08T01:07:18.568Z,100658.09
2023-02-08T01:10:20.292Z,100664.84
2023-02-08T01:13:21.931Z,100661.41
2023-02-08T01:16:26.542Z,100654.16
2023-02-08T01:19:28.303Z,100654.63
2023-02-08T01:22:31.885Z,100657.84
2023-02-08T01:25:35.122Z,100646.22
2023-02-08T01:28:36.963Z,100656.69
2023-02-08T01:31:40.219Z,100645.16
2023-02-08T01:34:44.059Z,100645.88
2023-02-08T01:37:47.130Z,100645.63
2023-02-08T01:40:48.816Z,100647.03
2023-02-08T01:44:07.859Z,100646.03
2023-02-08T01:47:09.747Z,100647.81
2023-02-08T01:50:11.688Z,100640.19
2023-02-08T01:53:16.054Z,100646.41
2023-02-08T01:56:21.030Z,100651.47
2023-02-08T01:59:26.541Z,100652.56
2023-02-08T02:02:28.799Z,100649.84
2023-02-08T02:05:32.544Z,100646.34
2023-02-08T02:08:35.693Z,100645.50
2023-02-08T02:11:37.412Z,100644.69
2023-02-08T02:14:39.810Z,100650.50
2023-02-08T02:17:41.776Z,100650.31
2023-02-08T02:20:54.064Z,100653.72
2023-02-08T02:24:23.479Z,100653.72
2023-02-08T02:27:40.766Z,100650.38
2023-02-08T02:30:56.682Z,100651.38
2023-02-08T02:34:03.635Z,100644.56
2023-02-08T02:37:11.367Z,100647.03
2023-02-08T02:40:16.523Z,100646.97
2023-02-08T02:43:39.970Z,100644.25
2023-02-08T02:46:43.918Z,100640.69
2023-02-08T02:49:51.383Z,100636.25
2023-02-08T02:52:57.211Z,100636.94
2023-02-08T02:56:01.584Z,100631.03
2023-02-08T02:59:05.369Z,100629.25
2023-02-08T03:02:06.957Z,100634.47
2023-02-08T03:05:12.065Z,100633.50
2023-02-08T03:08:31.663Z,100636.88
2023-02-08T03:11:34.157Z,100633.50
2023-02-08T03:14:42.262Z,100632.44
2023-02-08T03:17:50.259Z,100631.44
2023-02-08T03:20:59.587Z,100628.88
2023-02-08T03:24:04.606Z,100618.06
2023-02-08T03:27:08.756Z,100623.50
2023-02-08T03:30:12.534Z,100620.84
2023-02-08T03:33:15.854Z,100617.28
2023-02-08T03:36:21.943Z,100619.06
2023-02-08T03:39:26.316Z,100621.75
2023-02-08T03:42:30.460Z,100621.00
2023-02-08T03:45:33.805Z,100611.28
2023-02-08T03:48:37.077Z,100611.22
2023-02-08T03:51:40.937Z,100614.44
2023-02-08T03:54:46.647Z,100607.13
2023-02-08T03:57:49.779Z,100616.53
2023-02-08T04:00:55.023Z,100610.59
2023-02-08T04:03:57.299Z,100612.41
2023-02-08T04:07:00.440Z,100607.38
2023-02-08T04:10:02.313Z,100602.34
2023-02-08T04:13:04.585Z,100604.13
2023-02-08T04:16:06.555Z,100589.34
2023-02-08T04:19:08.270Z,100589.56
2023-02-08T04:22:11.278Z,100587.84
2023-02-08T04:25:13.094Z,100595.75
2023-02-08T04:28:14.973Z,100590.66
2023-02-08T04:31:16.690Z,100598.59
2023-02-08T04:34:18.617Z,100588.44
2023-02-08T04:37:21.488Z,100594.66
2023-02-08T04:40:23.110Z,100588.38
2023-02-08T04:43:24.917Z,100588.88
2023-02-08T04:46:26.587Z,100593.16
2023-02-08T04:49:28.281Z,100597.28
2023-02-08T04:52:31.323Z,100615.34
2023-02-08T04:55:32.842Z,100612.00
2023-02-08T04:58:34.481Z,100611.22
2023-02-08T05:01:36.102Z,100615.78
2023-02-08T05:04:37.860Z,100620.78
2023-02-08T05:07:41.070Z,100622.50
2023-02-08T05:10:44.340Z,100622.97
2023-02-08T05:13:45.927Z,100624.69
2023-02-08T05:16:47.844Z,100622.66
2023-02-08T05:19:49.614Z,100625.81
2023-02-08T05:22:52.547Z,100623.84
2023-02-08T05:25:54.294Z,100622.06
2023-02-08T05:28:55.833Z,100629.06
2023-02-08T05:31:57.468Z,100638.53
2023-02-08T05:34:59.580Z,100638.50
2023-02-08T05:38:02.573Z,100645.16
2023-02-08T05:41:04.245Z,100640.78
2023-02-08T05:44:05.828Z,100645.75
2023-02-08T05:47:07.540Z,100644.59
2023-02-08T05:50:09.276Z,100645.09
2023-02-08T05:53:12.356Z,100641.53
2023-02-08T05:56:14.035Z,100644.06
2023-02-08T05:59:15.528Z,100645.53
2023-02-08T06:02:20.247Z,100649.91
2023-02-08T06:05:21.874Z,100642.66
2023-02-08T06:08:24.801Z,100642.25
2023-02-08T06:11:27.661Z,100647.88
2023-02-08T06:14:29.450Z,100650.28
2023-02-08T06:17:30.949Z,100654.66
2023-02-08T06:20:32.517Z,100645.06
2023-02-08T06:23:35.521Z,100650.97
2023-02-08T06:26:37.556Z,100647.25
2023-02-08T06:29:39.526Z,100649.81
2023-02-08T06:32:41.096Z,100643.97
2023-02-08T06:35:44.422Z,100641.78
2023-02-08T06:38:48.300Z,100648.84
2023-02-08T06:41:51.013Z,100643.56
2023-02-08T06:44:55.610Z,100645.41
2023-02-08T06:47:57.460Z,100653.63
2023-02-08T06:50:59.158Z,100644.84
2023-02-08T06:54:02.622Z,100653.56
2023-02-08T06:57:04.432Z,100645.09
2023-02-08T07:00:06.654Z,100652.91
2023-02-08T07:03:09.045Z,100646.81
2023-02-08T07:06:14.765Z,100653.03
2023-02-08T07:09:18.184Z,100649.81
2023-02-08T07:12:20.161Z,100640.25
2023-02-08T07:15:21.922Z,100639.59
2023-02-08T07:18:23.517Z,100633.06
2023-02-08T07:21:28.212Z,100626.56
2023-02-08T07:24:31.424Z,100632.00
2023-02-08T07:27:33.102Z,100632.03
2023-02-08T07:30:34.648Z,100628.53
2023-02-08T07:33:36.798Z,100621.47
2023-02-08T07:36:38.463Z,100626.00
2023-02-08T07:39:41.565Z,100627.88
2023-02-08T07:42:43.188Z,100632.31
2023-02-08T07:46:05.096Z,100637.75
2023-02-08T07:49:06.777Z,100639.59
2023-02-08T07:52:08.270Z,100634.75
2023-02-08T07:55:13.106Z,100641.13
2023-02-08T07:58:14.670Z,100637.16
2023-02-08T08:01:22.380Z,100641.75
2023-02-08T08:04:24.492Z,100634.34
2023-02-08T08:07:26.199Z,100635.81
2023-02-08T08:10:29.248Z,100627.91
2023-02-08T08:13:30.966Z,100627.56
2023-02-08T08:16:32.602Z,100628.88
2023-02-08T08:19:34.410Z,100629.22
2023-02-08T08:22:36.264Z,100622.19
2023-02-08T08:25:39.486Z,100629.13
2023-02-08T08:28:41.539Z,100627.75
2023-02-08T08:31:43.898Z,100632.44
2023-02-08T08:34:45.546Z,100626.69
2023-02-08T08:37:47.222Z,100633.00
2023-02-08T08:40:50.165Z,100633.31
2023-02-08T08:43:51.729Z,100623.13
2023-02-08T08:46:54.554Z,100626.94
2023-02-08T08:49:58.085Z,100630.63
2023-02-08T08:53:01.538Z,100626.66
2023-02-08T08:56:05.172Z,100620.94
2023-02-08T08:59:06.745Z,100624.00
2023-02-08T09:02:09.926Z,100625.28
2023-02-08T09:05:11.779Z,100620.47
2023-02-08T09:08:13.895Z,100612.97
2023-02-08T09:11:17.132Z,100610.94
2023-02-08T09:14:18.900Z,100607.88
2023-02-08T09:17:20.709Z,100612.56
2023-02-08T09:20:22.520Z,100614.16
2023-02-08T09:23:24.179Z,100610.13
2023-02-08T09:26:28.024Z,100611.22
2023-02-08T09:29:30.298Z,100612.16
2023-02-08T09:32:35.746Z,100611.69
2023-02-08T09:35:37.576Z,100605.59
2023-02-08T09:38:39.871Z,100609.28
2023-02-08T09:41:52.993Z,100599.41
2023-02-08T09:45:15.190Z,100592.63
2023-02-08T09:48:21.310Z,100591.84
2023-02-08T09:51:28.200Z,100586.91
2023-02-08T09:54:32.223Z,100594.41
2023-02-08T09:57:37.719Z,100588.25
2023-02-08T10:00:41.562Z,100597.22
2023-02-08T10:03:46.831Z,100589.63
2023-02-08T10:06:50.169Z,100596.16
2023-02-08T10:09:53.110Z,100593.84
2023-02-08T10:13:02.920Z,100600.34
2023-02-08T10:16:08.521Z,100601.16
2023-02-08T10:19:14.408Z,100600.66
2023-02-08T10:22:23.077Z,100598.16
2023-02-08T10:25:33.361Z,100598.94
2023-02-08T10:28:42.577Z,100598.25
2023-02-08T10:32:05.514Z,100606.81
2023-02-08T10:35:11.274Z,100608.59
2023-02-08T10:38:37.245Z,100604.50
2023-02-08T10:41:47.431Z,100591.13
2023-02-08T10:45:00.626Z,100585.19
2023-02-08T10:48:05.899Z,100581.66
2023-02-08T10:51:11.586Z,100580.75
2023-02-08T10:54:14.365Z,100574.63
2023-02-08T10:57:18.035Z,100574.66
2023-02-08T11:00:22.488Z,100571.31
2023-02-08T11:03:25.265Z,100568.81
2023-02-08T11:06:27.410Z,100560.88
2023-02-08T11:09:31.210Z,100561.91
2023-02-08T11:12:32.946Z,100565.50
2023-02-08T11:15:40.152Z,100561.97
2023-02-08T11:18:47.748Z,100557.75
2023-02-08T11:21:50.749Z,100555.09
2023-02-08T11:24:57.141Z,100551.66
2023-02-08T11:28:03.083Z,100549.94
2023-02-08T11:31:16.438Z,100542.94
2023-02-08T11:34:24.390Z,100543.97
2023-02-08T11:37:28.780Z,100544.97
2023-02-08T11:40:34.396Z,100546.09
2023-02-08T11:43:36.354Z,100539.09
2023-02-08T11:46:42.088Z,100527.63
2023-02-08T11:49:44.791Z,100538.44
2023-02-08T11:52:51.940Z,100529.63
2023-02-08T11:56:04.865Z,100541.22
2023-02-08T11:59:17.652Z,100541.22
2023-02-08T12:02:31.173Z,100538.59
2023-02-08T12:05:37.842Z,100530.88
2023-02-08T12:08:41.866Z,100527.38
2023-02-08T12:11:45.364Z,100519.53
2023-02-08T12:14:53.942Z,100515.09
2023-02-08T12:18:05.287Z,100520.28
2023-02-08T12:21:11.166Z,100522.06
2023-02-08T12:24:17.515Z,100519.22
2023-02-08T12:27:29.570Z,100514.84
2023-02-08T12:30:34.056Z,100514.03
2023-02-08T12:33:43.684Z,100515.03
2023-02-08T12:37:12.589Z,100515.91
2023-02-08T12:40:41.059Z,100498.50
2023-02-08T12:43:47.866Z,100498.66
2023-02-08T12:46:51.950Z,100482.84
2023-02-08T12:50:02.931Z,100485.44
2023-02-08T12:53:10.377Z,100491.53
2023-02-08T12:56:16.802Z,100473.03
2023-02-08T12:59:22.964Z,100480.16
2023-02-08T13:02:28.808Z,100477.50
2023-02-08T13:05:34.676Z,100464.28
2023-02-08T13:08:40.854Z,100471.41
2023-02-08T13:11:45.445Z,100474.19
2023-02-08T13:14:50.206Z,100462.78
2023-02-08T13:17:54.166Z,100451.31
2023-02-08T13:21:00.117Z,100447.75
2023-02-08T13:24:02.997Z,100447.84
2023-02-08T13:27:07.456Z,100450.50
2023-02-08T13:30:17.446Z,100438.91
2023-02-08T13:33:22.299Z,100433.63
2023-02-08T13:36:27.256Z,100429.22
2023-02-08T13:39:35.058Z,100421.34
2023-02-08T13:42:39.758Z,100418.66
2023-02-08T13:45:44.184Z,100409.81
2023-02-08T13:48:47.942Z,100408.00
2023-02-08T13:51:54.352Z,100400.94
2023-02-08T13:55:10.869Z,100401.00
2023-02-08T13:58:27.336Z,100388.63
2023-02-08T14:01:30.058Z,100400.94
2023-02-08T14:04:36.466Z,100397.41
2023-02-08T14:07:43.151Z,100394.78
2023-02-08T14:10:50.680Z,100388.59
2023-02-08T14:13:54.476Z,100391.19
2023-02-08T14:17:09.696Z,100382.38
2023-02-08T14:20:17.743Z,100378.84
2023-02-08T14:23:24.546Z,100370.03
2023-02-08T14:26:27.065Z,100375.28
2023-02-08T14:29:32.838Z,100367.34
2023-02-08T14:32:35.833Z,100368.16
2023-02-08T14:35:39.585Z,100364.69
2023-02-08T14:38:53.613Z,100370.84
2023-02-08T14:42:00.204Z,100369.94
2023-02-08T14:45:03.634Z,100371.66
2023-02-08T14:48:19.160Z,100368.09
2023-02-08T14:51:24.397Z,100361.03
2023-02-08T14:54:36.738Z,100358.31
2023-02-08T14:57:41.178Z,100351.25
2023-02-08T15:00:43.045Z,100345.94
2023-02-08T15:03:45.917Z,100345.03
2023-02-08T15:07:02.919Z,100339.69
2023-02-08T15:10:10.725Z,100337.91
2023-02-08T15:13:18.390Z,100334.31
2023-02-08T15:16:20.493Z,100323.72
2023-02-08T15:19:24.387Z,100318.34
2023-02-08T15:22:35.003Z,100312.16
2023-02-08T15:25:38.903Z,100309.47
2023-02-08T15:28:44.212Z,100298.81
2023-02-08T15:31:46.115Z,100305.72
2023-02-08T15:34:50.278Z,100307.38
2023-02-08T15:37:52.719Z,100307.31
2023-02-08T15:41:04.829Z,100305.44
2023-02-08T15:44:16.646Z,100308.00
2023-02-08T15:47:21.982Z,100311.41
2023-02-08T15:50:24.584Z,100304.34
2023-02-08T15:53:27.387Z,100291.09
2023-02-08T15:56:38.634Z,100297.19
2023-02-08T15:59:45.856Z,100292.69
2023-02-08T16:02:51.784Z,100290.81
2023-02-08T16:05:55.757Z,100281.03
2023-02-08T16:08:58.808Z,100288.91
2023-02-08T16:12:01.972Z,100282.59
2023-02-08T16:15:03.723Z,100284.25
2023-02-08T16:18:05.565Z,100290.28
2023-02-08T16:21:21.917Z,100289.34
2023-02-08T16:24:24.997Z,100286.59
2023-02-08T16:27:29.897Z,100285.59
2023-02-08T16:30:31.909Z,100277.50
2023-02-08T16:33:37.286Z,100284.31
2023-02-08T16:36:40.637Z,100274.53
2023-02-08T16:39:52.525Z,100279.72
2023-02-08T16:43:14.952Z,100274.34
2023-02-08T16:46:17.813Z,100275.97
2023-02-08T16:49:20.018Z,100275.88
2023-02-08T16:52:22.718Z,100281.91
2023-02-08T16:55:25.495Z,100283.44
2023-02-08T16:58:28.483Z,100279.00
2023-02-08T17:01:30.407Z,100276.38
2023-02-08T17:04:32.617Z,100277.28
2023-02-08T17:07:34.599Z,100266.72
2023-02-08T17:10:36.360Z,100259.66
2023-02-08T17:13:39.595Z,100262.16
2023-02-08T17:16:42.442Z,100247.88
2023-02-08T17:19:44.529Z,100251.38
2023-02-08T17:22:46.530Z,100247.84
2023-02-08T17:25:48.743Z,100238.16
2023-02-08T17:28:51.943Z,100244.28
2023-02-08T17:31:53.744Z,100238.91
2023-02-08T17:34:56.991Z,100236.22
2023-02-08T17:37:59.306Z,100240.53
2023-02-08T17:41:03.420Z,100231.63
2023-02-08T17:44:07.051Z,100227.22
2023-02-08T17:47:08.850Z,100230.59
2023-02-08T17:50:11.146Z,100231.38
2023-02-08T17:53:13.104Z,100228.59
2023-02-08T17:56:16.269Z,100228.53
2023-02-08T17:59:19.401Z,100218.06
2023-02-08T18:02:21.096Z,100215.38
2023-02-08T18:05:23.656Z,100209.19
2023-02-08T18:08:25.886Z,100201.19
2023-02-08T18:11:27.590Z,100195.06
2023-02-08T18:14:30.815Z,100182.69
2023-02-08T18:17:32.841Z,100185.25
2023-02-08T18:20:34.765Z,100184.34
2023-02-08T18:23:36.585Z,100178.06
2023-02-08T18:26:38.313Z,100179.66
2023-02-08T18:29:41.425Z,100182.25
2023-02-08T18:32:43.144Z,100167.28
2023-02-08T18:35:48.061Z,100169.88
2023-02-08T18:38:51.261Z,100174.28
2023-02-08T18:41:52.988Z,100158.31
2023-02-08T18:44:56.090Z,100153.09
2023-02-08T18:47:58.847Z,100141.72
2023-02-08T18:51:02.883Z,100146.31
2023-02-08T18:54:04.748Z,100135.09
2023-02-08T18:57:09.709Z,100129.84
2023-02-08T19:00:14.305Z,100128.19
2023-02-08T19:03:16.211Z,100138.63
2023-02-08T19:06:21.114Z,100126.31
2023-02-08T19:09:22.857Z,100133.25
2023-02-08T19:12:24.635Z,100126.22
2023-02-08T19:15:27.699Z,100120.03
2023-02-08T19:18:29.481Z,100117.28
2023-02-08T19:21:32.740Z,100121.59
2023-02-08T19:24:34.492Z,100118.97
2023-02-08T19:27:37.067Z,100125.97
2023-02-08T19:30:40.194Z,100117.31
2023-02-08T19:33:43.523Z,100112.06
2023-02-08T19:36:46.582Z,100111.09
2023-02-08T19:39:48.599Z,100113.81
2023-02-08T19:42:50.658Z,100111.13
2023-02-08T19:45:56.150Z,100104.97
2023-02-08T19:49:00.273Z,100092.72
2023-02-08T19:52:02.056Z,100087.53
2023-02-08T19:55:03.959Z,100085.00
2023-02-08T19:58:05.652Z,100083.19
2023-02-08T20:01:09.648Z,100086.69
2023-02-08T20:04:12.514Z,100094.44
2023-02-08T20:07:14.328Z,100092.72
2023-02-08T20:10:16.168Z,100089.25
2023-02-08T20:13:17.927Z,100086.56
2023-02-08T20:16:21.546Z,100087.47
2023-02-08T20:19:26.863Z,100087.53
2023-02-08T20:22:28.779Z,100090.88
2023-02-08T20:28:33.497Z,100097.66
2023-02-08T20:31:37.888Z,100101.88
2023-02-08T20:34:47.394Z,100103.69
2023-02-08T20:37:55.777Z,100104.34
2023-02-08T20:41:01.126Z,100097.25
2023-02-08T20:44:02.950Z,100095.44
2023-02-08T20:47:06.119Z,100105.94
2023-02-08T20:50:18.170Z,100110.38
2023-02-08T20:53:20.813Z,100110.31
2023-02-08T20:56:23.832Z,100100.66
2023-02-08T20:59:25.556Z,100104.16
2023-02-08T21:02:28.701Z,100103.31
2023-02-08T21:05:30.477Z,100105.94
2023-02-08T21:08:32.360Z,100101.44
2023-02-08T21:11:34.957Z,100109.28
2023-02-08T21:14:36.738Z,100107.44
2023-02-08T21:17:41.438Z,100096.69
2023-02-08T21:20:44.109Z,100092.41
2023-02-08T21:23:46.474Z,100097.69
2023-02-08T21:26:48.155Z,100082.69
2023-02-08T21:29:50.010Z,100082.56
2023-02-08T21:32:56.034Z,100080.75
2023-02-08T21:36:00.991Z,100091.97
2023-02-08T21:39:03.619Z,100087.50
2023-02-08T21:42:05.741Z,100077.84
2023-02-08T21:45:09.057Z,100084.88
2023-02-08T21:48:13.404Z,100088.34
2023-02-08T21:51:36.284Z,100093.66
2023-02-08T21:54:52.591Z,100089.38
2023-02-08T22:01:15.676Z,100098.06
2023-02-08T22:04:19.356Z,100091.94
2023-02-08T22:07:21.561Z,100088.28
2023-02-08T22:13:56.065Z,100098.59
2023-02-08T22:16:58.041Z,100087.09
2023-02-08T22:20:01.061Z,100087.13
2023-02-08T22:23:03.405Z,100090.47
2023-02-08T22:26:07.046Z,100093.06
2023-02-08T22:29:08.830Z,100087.75
2023-02-08T22:32:12.441Z,100090.97
2023-02-08T22:35:16.507Z,100089.28
2023-02-08T22:38:18.509Z,100094.38
2023-02-08T22:41:20.422Z,100083.22
2023-02-08T22:44:23.193Z,100076.47
2023-02-08T22:47:25.177Z,100074.63
2023-02-08T22:50:28.251Z,100084.88
2023-02-08T22:53:30.456Z,100083.16
2023-02-08T22:56:32.551Z,100084.66
2023-02-08T22:59:34.209Z,100082.03
2023-02-08T23:02:35.993Z,100077.56
2023-02-08T23:05:41.658Z,100069.81
2023-02-08T23:08:43.799Z,100068.84
2023-02-08T23:11:45.410Z,100070.56
2023-02-08T23:14:47.140Z,100068.72
2023-02-08T23:17:48.850Z,100057.19
2023-02-08T23:20:52.067Z,100070.16
2023-02-08T23:23:53.940Z,100056.16
2023-02-08T23:26:55.890Z,100056.72
2023-02-08T23:29:57.829Z,100060.03
2023-02-08T23:32:59.613Z,100067.84
2023-02-08T23:36:06.338Z,100059.22
2023-02-08T23:39:08.375Z,100058.56
2023-02-08T23:42:25.333Z,100061.97
2023-02-08T23:45:27.126Z,100060.94
2023-02-08T23:48:28.790Z,100052.09
2023-02-08T23:51:31.918Z,100041.44
2023-02-08T23:54:33.615Z,100035.53
2023-02-08T23:57:35.816Z,100034.66
